CheckWX is a tool to help pilots better visualize weather data.  It is not intended as a substitute for an official pre-flight weather briefing.

09:13:14 UTC

KSXS METAR
Shell AHP Heliport
Fort Rucker, Alabama, USA
Current

11 mins ago

KSXS 250902Z AUTO 10004KT 10SM FEW002 23/22 A2995 RMK AO2 SLP140
Observed
Aug-25 @ 09:02 UTC
Wind
  • 100° at 4 KTS
Visibility
10 SM
Flight Rules
VFR
Cloud Levels
  • Few at 200' AGL
Temperature
23°C / 73°F
Dewpoint
22°C / 72°F
Humidity
94%
Altimeter
29.95" Hg
Pressure
1014.22 hPa
Previous

1 hour ago

KSXS 250758Z AUTO 00000KT 10SM CLR 23/22 A2994 RMK AO2 SLP136 T02290221 403330227
Observed
Aug-25 @ 07:58 UTC
Visibility
10 SM
Flight Rules
VFR
Cloud Levels
  • Clear skies
Temperature
23°C / 73°F
Dewpoint
22°C / 72°F
Humidity
94%
Altimeter
29.94" Hg
Pressure
1013.92 hPa
Previous

2 hours ago

KSXS 250730Z AUTO 00000KT 10SM FEW200 23/22 A2994 RMK AO2 SLP136
Observed
Aug-25 @ 07:30 UTC
Visibility
10 SM
Flight Rules
VFR
Cloud Levels
  • Few at 20,000' AGL
Temperature
23°C / 73°F
Dewpoint
22°C / 72°F
Humidity
94%
Altimeter
29.94" Hg
Pressure
1013.92 hPa